Time;durP1;ratioP1;P1;durP2;ratioP2;P2;SDS_P1;SDS_P2;PMS_P1;PMS_P2;Temp;Humidity;BMP_temperature;BMP_pressure;BME280_temperature;BME280_humidity;BME280_pressure;Samples;Min_cycle;Max_cycle;Signal;HPM_P1;HPM_P2
2022/02/03 00:02:07;;;;;;;19.90;10.10;;;;;;;1.04;77.60;98553.05;1712284;82;21392;-51
2022/02/03 00:04:21;;;;;;;23.77;10.23;;;;;;;1.04;77.57;98563.19;1707816;82;21141;-52
2022/02/03 00:06:54;;;;;;;22.13;9.37;;;;;;;1.07;77.51;98568.87;1708999;82;21375;-53
2022/02/03 00:25:30;;;;;;;22.05;10.90;;;;;;;1.09;77.33;98560.42;1709467;82;21128;-50
2022/02/03 00:28:12;;;;;;;18.13;10.47;;;;;;;1.10;77.32;98567.02;1708577;82;21031;-53
2022/02/03 00:49:14;;;;;;;;;;;;;;;1.21;77.24;98566.67;1710803;82;21085;-52
2022/02/03 00:51:45;;;;;;;19.30;10.83;;;;;;;1.21;77.22;98565.80;1728741;82;21118;-52
2022/02/03 00:54:10;;;;;;;17.97;10.77;;;;;;;1.21;77.22;98566.67;1725909;82;21009;-52
2022/02/03 00:56:45;;;;;;;21.77;11.50;;;;;;;1.21;77.21;98557.84;1725255;82;21284;-52
2022/02/03 00:59:20;;;;;;;20.97;12.83;;;;;;;1.21;77.19;98564.02;1706094;82;21407;-53
2022/02/03 01:01:51;;;;;;;19.43;11.23;;;;;;;1.20;77.18;98563.61;1725649;82;20942;-54
2022/02/03 01:04:17;;;;;;;25.47;13.10;;;;;;;1.20;77.17;98566.26;1721068;82;22327;-54
2022/02/03 01:06:55;;;;;;;18.23;10.17;;;;;;;1.20;77.19;98562.73;1721885;82;21061;-51
2022/02/03 01:09:23;;;;;;;15.83;10.87;;;;;;;1.21;77.17;98569.32;1728970;82;21049;-54
2022/02/03 01:11:59;;;;;;;20.57;11.57;;;;;;;1.20;77.19;98561.41;1721082;82;21076;-53
2022/02/03 01:14:37;;;;;;;22.60;12.53;;;;;;;1.20;77.18;98554.78;1728610;82;21034;-54
2022/02/03 01:44:24;;;;;;;17.73;10.47;;;;;;;1.29;77.37;98576.59;1688713;82;22182;-51
2022/02/03 01:46:53;;;;;;;17.27;10.07;;;;;;;1.29;77.43;98573.06;1724288;82;21465;-51
2022/02/03 01:49:16;;;;;;;16.83;9.43;;;;;;;1.29;77.48;98583.67;1724300;82;21113;-52
2022/02/03 01:51:56;;;;;;;20.77;9.73;;;;;;;1.30;77.51;98584.96;1723230;82;21017;-52
2022/02/03 01:54:29;;;;;;;22.67;10.80;;;;;;;1.29;77.57;98587.20;1726628;82;21279;-52
2022/02/03 01:57:12;;;;;;;16.57;10.47;;;;;;;1.30;77.62;98583.63;1729145;82;21741;-53
2022/02/03 01:59:40;;;;;;;18.03;9.43;;;;;;;1.31;77.64;98578.75;1725845;82;21101;-52
2022/02/03 02:02:07;;;;;;;17.83;9.63;;;;;;;1.33;77.66;98578.25;1732499;82;20892;-52
2022/02/03 02:04:52;;;;;;;15.17;9.53;;;;;;;1.34;77.68;98581.32;1723692;82;21511;-52
2022/02/03 02:07:31;;;;;;;17.53;9.47;;;;;;;1.37;77.72;98575.03;1724993;82;21069;-52
2022/02/03 02:38:14;;;;;;;15.80;8.60;;;;;;;1.39;78.14;98567.91;1731931;82;22214;-54
2022/02/03 02:41:18;;;;;;;23.63;11.77;;;;;;;1.38;78.20;98567.49;1726325;82;20903;-53
2022/02/03 02:43:35;;;;;;;18.20;9.23;;;;;;;1.36;78.21;98562.72;1724957;82;20923;-53
2022/02/03 02:46:08;;;;;;;16.07;8.90;;;;;;;1.35;78.29;98564.95;1727477;82;21794;-52
2022/02/03 02:49:00;;;;;;;18.67;9.47;;;;;;;1.35;78.30;98569.80;1729280;82;21490;-53
2022/02/03 02:51:34;;;;;;;16.83;9.07;;;;;;;1.35;78.32;98570.26;1728139;82;22441;-54
2022/02/03 02:54:40;;;;;;;14.90;8.80;;;;;;;1.36;78.42;98565.38;1728705;82;22209;-54
2022/02/03 03:30:39;;;;;;;;;;;;;;;1.43;78.42;98587.67;1727993;82;21304;-53
2022/02/03 03:35:49;;;;;;;15.10;8.17;;;;;;;1.42;78.42;98605.82;1721960;82;21058;-54
2022/02/03 03:38:19;;;;;;;16.73;8.20;;;;;;;1.41;78.39;98602.75;1724342;82;21049;-54
2022/02/03 03:40:49;;;;;;;14.63;8.27;;;;;;;1.40;78.37;98601.02;1707977;82;21132;-54
2022/02/03 03:43:41;;;;;;;15.20;8.37;;;;;;;1.41;78.39;98606.73;1726978;82;21093;-53
2022/02/03 03:46:34;;;;;;;18.07;9.37;;;;;;;1.41;78.38;98609.84;1729358;82;21126;-54
2022/02/03 03:49:26;;;;;;;13.23;8.53;;;;;;;1.39;78.39;98612.53;1722641;82;21191;-54
2022/02/03 03:52:22;;;;;;;13.23;7.33;;;;;;;1.38;78.40;98618.74;1678771;83;21022;-54
2022/02/03 03:55:06;;;;;;;18.10;8.20;;;;;;;1.39;78.42;98625.78;1688210;83;22109;-54
2022/02/03 04:33:13;;;;;;;13.73;7.37;;;;;;;1.42;78.46;98647.38;1687113;83;21087;-53
2022/02/03 04:44:22;;;;;;;11.97;8.63;;;;;;;1.41;78.53;98647.83;1687675;83;22119;-54
2022/02/03 04:59:24;;;;;;;22.97;8.70;;;;;;;1.40;78.58;98665.98;1714974;82;21404;-54
2022/02/03 05:08:26;;;;;;;10.23;7.40;;;;;;;1.37;78.71;98684.61;1555997;88;21020;-54
2022/02/03 05:20:50;;;;;;;11.37;7.20;;;;;;;1.35;78.83;98701.50;1715811;82;20900;-54
2022/02/03 05:33:25;;;;;;;11.83;7.50;;;;;;;1.39;78.99;98718.59;1711040;82;21511;-54
2022/02/03 06:05:44;;;;;;;12.97;8.23;;;;;;;1.56;79.16;98741.11;1725287;82;21392;-54
2022/02/03 06:08:19;;;;;;;12.20;6.77;;;;;;;1.57;79.09;98745.05;1722719;82;21754;-54
2022/02/03 06:13:28;;;;;;;11.05;6.83;;;;;;;1.56;79.14;98746.42;1720972;82;28272;-54
2022/02/03 06:15:53;;;;;;;8.83;5.20;;;;;;;1.55;79.14;98753.95;1721604;82;21068;-54
2022/02/03 06:23:52;;;;;;;5.90;4.50;;;;;;;1.59;79.34;98773.73;1729957;82;21118;-54
2022/02/03 06:29:14;;;;;;;7.30;5.57;;;;;;;1.63;79.41;98768.75;1725185;82;21432;-54
2022/02/03 06:31:44;;;;;;;9.23;5.40;;;;;;;1.68;79.41;98773.48;1729552;82;21215;-54
2022/02/03 06:34:10;;;;;;;7.97;5.73;;;;;;;1.69;79.33;98773.91;1723794;82;21148;-54
2022/02/03 06:36:38;;;;;;;8.83;4.97;;;;;;;1.72;79.33;98772.92;1724264;82;22844;-54
2022/02/03 06:39:19;;;;;;;8.87;5.30;;;;;;;1.72;79.28;98772.47;1723573;82;21633;-54
2022/02/03 06:41:49;;;;;;;7.00;4.63;;;;;;;1.74;79.32;98775.08;1721214;82;21776;-54
2022/02/03 06:44:18;;;;;;;8.30;4.93;;;;;;;1.77;79.27;98782.97;1724632;82;21025;-54
2022/02/03 06:46:48;;;;;;;10.20;3.73;;;;;;;1.80;79.24;98780.20;1723878;81;21105;-54
2022/02/03 06:49:22;;;;;;;5.43;2.97;;;;;;;1.84;79.21;98780.09;1724173;80;22602;-54
2022/02/03 06:51:49;;;;;;;5.57;4.17;;;;;;;1.86;79.22;98778.73;1721902;82;21114;-54
2022/02/03 06:54:19;;;;;;;7.53;3.90;;;;;;;1.90;79.25;98792.30;1723655;82;21093;-54
2022/02/03 06:56:48;;;;;;;9.43;3.80;;;;;;;1.94;79.20;98801.06;1723658;80;21093;-56
2022/02/03 06:59:12;;;;;;;6.03;4.40;;;;;;;1.95;79.07;98797.50;1721078;82;21366;-55
2022/02/03 07:01:39;;;;;;;7.70;4.57;;;;;;;1.96;79.05;98800.08;1723993;82;21115;-55
2022/02/03 07:04:14;;;;;;;5.43;4.10;;;;;;;1.98;79.00;98805.34;1729735;82;21358;-55
2022/02/03 07:06:33;;;;;;;6.47;3.40;;;;;;;2.00;78.96;98811.03;1727824;82;20950;-55
2022/02/03 07:09:07;;;;;;;6.47;5.30;;;;;;;2.04;78.92;98811.83;1725560;82;22205;-55
2022/02/03 07:11:32;;;;;;;7.47;4.03;;;;;;;2.08;78.89;98818.78;1657055;85;21023;-55
2022/02/03 07:13:58;;;;;;;8.83;3.70;;;;;;;2.12;78.88;98817.33;1725493;82;21009;-55
2022/02/03 07:16:25;;;;;;;7.30;4.07;;;;;;;2.16;78.87;98815.44;1725003;82;21046;-55
2022/02/03 07:18:51;;;;;;;4.57;3.50;;;;;;;2.18;78.80;98824.23;1724489;81;21089;-55
2022/02/03 07:21:17;;;;;;;6.03;4.20;;;;;;;2.20;78.74;98817.11;1727889;82;21140;-54
2022/02/03 07:23:44;;;;;;;5.73;3.87;;;;;;;2.19;78.66;98824.20;1730985;82;21089;-55
2022/02/03 07:26:12;;;;;;;7.00;4.57;;;;;;;2.20;78.63;98828.59;1728334;81;21148;-54
2022/02/03 07:28:38;;;;;;;5.43;4.23;;;;;;;2.20;78.59;98833.03;1725892;82;21066;-54
2022/02/03 07:31:05;;;;;;;6.37;4.40;;;;;;;2.20;78.58;98836.56;1722200;82;21022;-54
2022/02/03 07:33:32;;;;;;;7.07;4.83;;;;;;;2.21;78.56;98840.92;1727901;82;21160;-55
2022/02/03 07:35:58;;;;;;;4.30;3.90;;;;;;;2.21;78.63;98836.95;1726806;82;21334;-54
2022/02/03 07:38:25;;;;;;;6.27;4.97;;;;;;;2.23;78.65;98834.25;1723994;82;22584;-55
2022/02/03 07:40:51;;;;;;;5.37;4.53;;;;;;;2.28;78.69;98836.34;1726360;82;21180;-54
2022/02/03 07:43:20;;;;;;;8.77;5.07;;;;;;;2.33;78.65;98837.52;1722825;82;21105;-54
2022/02/03 07:45:46;;;;;;;6.53;4.97;;;;;;;2.37;78.57;98841.38;1725876;82;22264;-54
2022/02/03 07:48:12;;;;;;;6.90;5.63;;;;;;;2.39;78.50;98850.14;1725418;82;21057;-54
2022/02/03 07:50:38;;;;;;;5.93;5.43;;;;;;;2.40;78.45;98853.22;1725644;80;21057;-54
2022/02/03 07:53:05;;;;;;;6.57;5.27;;;;;;;2.40;78.36;98857.66;1718277;82;21079;-54
2022/02/03 07:55:31;;;;;;;5.13;4.33;;;;;;;2.40;78.30;98860.31;1712423;82;21085;-54
2022/02/03 07:57:58;;;;;;;6.90;4.80;;;;;;;2.38;78.29;98863.50;1710674;81;21050;-54
2022/02/03 08:00:24;;;;;;;10.80;5.23;;;;;;;2.37;78.28;98863.95;1709769;82;21070;-54
2022/02/03 08:02:51;;;;;;;6.60;4.90;;;;;;;2.38;78.32;98864.82;1708453;82;22769;-54
2022/02/03 08:05:19;;;;;;;4.77;4.23;;;;;;;2.39;78.32;98867.86;1711883;82;21490;-54
2022/02/03 08:08:05;;;;;;;7.17;5.23;;;;;;;2.39;78.36;98878.03;1709740;82;21436;-54
2022/02/03 08:10:37;;;;;;;6.53;4.60;;;;;;;2.42;78.34;98875.75;1711799;82;21033;-54
2022/02/03 08:13:01;;;;;;;7.17;4.70;;;;;;;2.42;78.34;98877.08;1710202;82;21074;-54
2022/02/03 08:15:28;;;;;;;6.70;3.90;;;;;;;2.40;78.31;98880.23;1711269;82;21770;-54
2022/02/03 08:18:01;;;;;;;5.80;4.70;;;;;;;2.34;78.22;98880.42;1714021;82;20960;-54
2022/02/03 08:20:24;;;;;;;4.23;3.80;;;;;;;2.29;78.26;98881.89;1711200;82;20911;-54
2022/02/03 08:23:11;;;;;;;5.97;3.83;;;;;;;2.25;78.35;98881.55;1711767;82;21137;-54
2022/02/03 08:25:26;;;;;;;1.80;1.70;;;;;;;2.22;78.42;98883.83;1709149;82;21145;-53
2022/02/03 08:28:25;;;;;;;2.23;1.83;;;;;;;2.24;78.52;98883.79;1709052;82;21124;-54
2022/02/03 08:32:58;;;;;;;1.40;1.00;;;;;;;2.14;78.33;98891.59;1713256;82;21035;-53
2022/02/03 08:35:34;;;;;;;1.00;0.80;;;;;;;2.10;78.17;98893.48;1715994;82;21244;-54
2022/02/03 08:40:32;;;;;;;0.90;0.70;;;;;;;1.94;78.17;98894.82;1713390;82;22227;-53
2022/02/03 08:42:53;;;;;;;0.70;0.70;;;;;;;1.90;78.35;98903.77;1718901;82;20955;-53
2022/02/03 08:45:19;;;;;;;0.87;0.70;;;;;;;1.89;78.42;98907.33;1712884;82;20977;-53
2022/02/03 08:47:46;;;;;;;1.63;0.80;;;;;;;1.89;78.40;98905.55;1715822;82;22021;-54
2022/02/03 08:50:12;;;;;;;0.90;0.70;;;;;;;1.92;78.55;98912.56;1718058;81;20918;-53
2022/02/03 08:53:30;;;;;;;1.93;1.00;;;;;;;1.95;78.53;98916.92;1718928;82;21095;-54
2022/02/03 08:55:22;;;;;;;1.73;0.90;;;;;;;1.96;78.52;98922.17;1702380;82;20891;-53
2022/02/03 08:58:06;;;;;;;2.60;1.00;;;;;;;1.96;78.51;98926.63;1725059;82;21093;-53
2022/02/03 09:52:47;;;;;;;1.65;1.37;;;;;;;1.43;76.57;98975.28;1717602;82;21035;-53
2022/02/03 09:57:39;;;;;;;1.63;1.20;;;;;;;1.41;76.47;98990.35;1684189;82;21093;-53
2022/02/03 10:00:49;;;;;;;2.05;1.12;;;;;;;1.41;76.26;98993.88;1671436;84;21161;-53
2022/02/03 10:03:09;;;;;;;3.47;1.72;;;;;;;1.39;75.94;98998.34;1669200;84;21050;-53
2022/02/03 10:07:52;;;;;;;2.43;1.67;;;;;;;1.41;75.70;98997.86;1858718;75;26407;-54
2022/02/03 10:10:18;;;;;;;3.10;1.80;;;;;;;1.38;75.56;99011.17;1828642;77;20997;-54
2022/02/03 10:12:49;;;;;;;1.70;1.60;;;;;;;1.38;75.23;99013.83;1828475;77;21121;-54
2022/02/03 10:15:13;;;;;;;2.27;1.47;;;;;;;1.35;74.81;99012.59;1826973;77;21276;-54
2022/02/03 10:17:43;;;;;;;2.70;1.40;;;;;;;1.31;74.75;99020.19;1828061;77;21573;-54
2022/02/03 10:20:13;;;;;;;3.03;2.07;;;;;;;1.30;74.45;99009.61;1827172;77;20957;-53
2022/02/03 10:22:56;;;;;;;3.20;2.13;;;;;;;1.30;74.30;99022.86;1831007;77;21255;-54
2022/02/03 10:25:34;;;;;;;2.80;1.67;;;;;;;1.29;73.99;99021.11;1824862;77;23260;-53
2022/02/03 10:28:08;;;;;;;2.53;1.70;;;;;;;1.25;73.67;99036.69;1832435;77;20902;-53
2022/02/03 10:30:43;;;;;;;2.83;1.90;;;;;;;1.21;73.70;99037.20;1827041;77;21080;-53
2022/02/03 10:33:05;;;;;;;3.80;1.93;;;;;;;1.21;73.51;99031.89;1827306;77;21017;-54
2022/02/03 10:35:58;;;;;;;3.37;2.17;;;;;;;1.20;73.31;99028.82;1826623;77;21231;-54
2022/02/03 10:54:34;;;;;;;4.40;2.33;;;;;;;1.24;73.13;99046.42;1829379;77;21415;-54
2022/02/03 11:05:26;;;;;;;4.47;1.90;;;;;;;1.08;72.97;99063.56;1808767;77;21117;-53
2022/02/03 11:07:49;;;;;;;2.65;1.72;;;;;;;1.05;73.16;99060.96;1806506;77;23690;-53
2022/02/03 11:12:37;;;;;;;2.90;2.13;;;;;;;0.99;73.46;99065.08;1812094;77;21025;-53
2022/02/03 11:15:05;;;;;;;2.90;2.37;;;;;;;0.96;73.77;99066.45;1811433;77;21130;-53
2022/02/03 11:17:32;;;;;;;5.40;2.47;;;;;;;0.94;74.14;99073.55;1814149;77;21151;-53
2022/02/03 11:19:59;;;;;;;5.50;2.20;;;;;;;0.91;74.49;99071.86;1809262;77;21168;-54
2022/02/03 11:22:33;;;;;;;4.43;2.17;;;;;;;0.90;75.21;99079.39;1809127;77;21373;-53
2022/02/03 11:25:16;;;;;;;3.80;2.63;;;;;;;0.89;75.71;99076.31;1811203;77;21456;-54
2022/02/03 11:36:08;;;;;;;2.70;2.43;;;;;;;0.80;76.57;99083.56;1812470;77;21350;-54
2022/02/03 11:43:54;;;;;;;5.10;2.67;;;;;;;0.68;77.63;99086.86;1817520;77;21823;-53
2022/02/03 11:59:09;;;;;;;4.47;3.27;;;;;;;0.61;76.30;99099.80;1812021;77;20836;-54
2022/02/03 12:02:04;;;;;;;3.70;2.70;;;;;;;0.58;76.06;99111.80;1810875;77;20847;-54
2022/02/03 12:07:35;;;;;;;5.73;4.00;;;;;;;0.51;75.99;99115.44;1816497;77;21436;-53
2022/02/03 12:23:43;;;;;;;8.30;3.53;;;;;;;0.53;75.70;99140.57;1817919;77;21118;-53
2022/02/03 12:26:09;;;;;;;5.70;4.17;;;;;;;0.52;75.82;99143.67;1817917;77;20950;-53
2022/02/03 12:28:53;;;;;;;6.47;3.93;;;;;;;0.53;75.96;99153.81;1816554;77;21016;-53
2022/02/03 12:41:59;;;;;;;6.53;3.83;;;;;;;0.45;76.25;99167.63;1813571;77;21037;-53
2022/02/03 12:44:22;;;;;;;5.80;3.87;;;;;;;0.45;76.11;99169.84;1806222;77;21041;-53
2022/02/03 12:46:37;;;;;;;5.57;4.43;;;;;;;0.45;75.94;99182.20;1801683;77;22202;-53
2022/02/03 12:49:04;;;;;;;8.63;4.63;;;;;;;0.45;75.82;99177.78;1791590;77;22076;-53
2022/02/03 12:51:30;;;;;;;6.33;4.90;;;;;;;0.46;75.70;99182.18;1817710;77;21110;-53
2022/02/03 12:53:56;;;;;;;6.60;4.70;;;;;;;0.47;75.51;99175.98;1817399;77;21352;-53
2022/02/03 12:56:25;;;;;;;6.10;3.90;;;;;;;0.48;74.86;99173.77;1811407;76;21026;-53
2022/02/03 12:59:01;;;;;;;7.23;4.50;;;;;;;0.47;74.77;99175.11;1809273;77;21069;-52
2022/02/03 13:01:35;;;;;;;4.87;3.53;;;;;;;0.44;74.42;99187.94;1812622;77;21128;-53
2022/02/03 13:04:08;;;;;;;3.93;3.23;;;;;;;0.43;73.49;99180.02;1814218;77;21037;-53
2022/02/03 13:06:31;;;;;;;3.90;3.43;;;;;;;0.42;73.65;99186.24;1814676;77;21049;-52
2022/02/03 13:09:01;;;;;;;5.77;2.53;;;;;;;0.45;73.21;99180.88;1813826;77;21080;-52
2022/02/03 13:11:40;;;;;;;6.20;3.60;;;;;;;0.42;72.74;99181.82;1820465;77;21096;-53
2022/02/03 13:14:32;;;;;;;5.07;3.33;;;;;;;0.41;72.79;99194.63;1810438;77;21471;-53
2022/02/03 13:19:57;;;;;;;4.93;2.77;;;;;;;0.36;72.12;99204.41;1815065;77;21077;-54
2022/02/03 13:25:12;;;;;;;5.23;3.00;;;;;;;0.29;72.25;99208.93;1813398;77;21079;-53
2022/02/03 13:27:56;;;;;;;7.70;3.13;;;;;;;0.32;72.23;99210.22;1812728;77;21745;-53
2022/02/03 13:30:11;;;;;;;5.97;3.60;;;;;;;0.34;72.20;99211.04;1808540;77;21005;-53
2022/02/03 13:32:42;;;;;;;5.30;3.87;;;;;;;0.34;72.19;99218.98;1814208;77;20934;-53
2022/02/03 13:35:20;;;;;;;5.23;4.13;;;;;;;0.30;71.74;99219.07;1811938;77;21497;-53
2022/02/03 13:37:44;;;;;;;6.97;3.55;;;;;;;0.25;71.93;99220.48;1812844;77;21420;-53
2022/02/03 13:40:12;;;;;;;4.87;3.50;;;;;;;0.22;71.93;99227.13;1810967;77;21779;-54
2022/02/03 13:42:45;;;;;;;4.90;3.37;;;;;;;0.20;71.93;99232.02;1812857;77;20937;-53
2022/02/03 13:45:09;;;;;;;5.60;4.40;;;;;;;0.15;71.79;99228.57;1739358;80;21344;-53
2022/02/03 13:47:36;;;;;;;8.77;4.77;;;;;;;0.11;71.92;99233.02;1760815;80;21307;-54
2022/02/03 13:50:21;;;;;;;7.30;4.00;;;;;;;0.08;71.81;99234.86;1759384;80;21404;-53
2022/02/03 13:52:50;;;;;;;6.40;3.40;;;;;;;0.05;71.45;99239.73;1760279;80;21070;-52
2022/02/03 14:20:23;;;;;;;5.00;3.23;;;;;;;-0.33;69.98;99290.92;1733043;81;21493;-53
2022/02/03 14:27:54;;;;;;;6.25;3.70;;;;;;;-0.38;69.83;99285.70;1778772;80;21481;-53
2022/02/03 14:30:22;;;;;;;5.63;2.93;;;;;;;-0.38;70.06;99287.03;1762299;80;21092;-53
2022/02/03 14:32:51;;;;;;;5.60;3.00;;;;;;;-0.36;69.83;99298.48;1764041;80;22623;-54
2022/02/03 14:35:18;;;;;;;4.43;2.40;;;;;;;-0.37;69.45;99303.33;1766304;80;21089;-53
2022/02/03 14:38:00;;;;;;;4.90;2.53;;;;;;;-0.42;69.68;99306.45;1769724;80;21124;-53
2022/02/03 14:40:33;;;;;;;6.73;3.07;;;;;;;-0.43;69.54;99303.41;1763598;80;21032;-53
2022/02/03 14:42:45;;;;;;;6.40;3.93;;;;;;;-0.45;69.65;99311.80;1761614;80;21473;-53
2022/02/03 14:45:14;;;;;;;6.33;3.40;;;;;;;-0.44;69.78;99317.52;1765513;80;21563;-53
2022/02/03 14:47:40;;;;;;;5.07;2.60;;;;;;;-0.42;69.83;99323.64;1770565;80;21367;-53
2022/02/03 14:50:09;;;;;;;10.53;4.80;;;;;;;-0.40;69.87;99329.35;1770914;80;21463;-53
2022/02/03 14:58:39;;;;;;;8.30;4.80;;;;;;;-0.34;70.33;99337.66;1770223;80;21173;-53
2022/02/03 15:00:46;;;;;;;10.83;5.03;;;;;;;-0.36;70.42;99342.55;1749302;80;20993;-53
2022/02/03 15:03:13;;;;;;;8.70;4.93;;;;;;;-0.41;70.61;99343.91;1767609;80;21537;-53
2022/02/03 15:05:40;;;;;;;8.73;4.97;;;;;;;-0.41;70.80;99346.55;1772678;80;20922;-53
2022/02/03 15:08:16;;;;;;;8.80;4.97;;;;;;;-0.38;70.92;99349.17;1767567;80;20961;-53
2022/02/03 15:14:02;;;;;;;11.73;5.87;;;;;;;-0.39;71.24;99361.52;1754211;80;20910;-53
2022/02/03 15:15:40;;;;;;;9.70;6.20;;;;;;;-0.41;71.36;99360.65;1713668;80;20870;-53
2022/02/03 15:18:13;;;;;;;7.20;5.00;;;;;;;-0.46;71.57;99365.56;1756437;80;20941;-52
2022/02/03 15:20:38;;;;;;;12.63;6.20;;;;;;;-0.50;71.73;99360.74;1755094;80;20875;-53
2022/02/03 15:23:05;;;;;;;9.30;5.23;;;;;;;-0.57;71.84;99374.04;1757679;80;21080;-52
2022/02/03 15:25:32;;;;;;;8.37;4.90;;;;;;;-0.63;71.93;99380.27;1755769;80;20875;-53
2022/02/03 15:27:59;;;;;;;11.33;4.77;;;;;;;-0.69;72.07;99379.46;1754993;80;20884;-53
2022/02/03 15:30:25;;;;;;;9.07;5.30;;;;;;;-0.72;72.16;99376.83;1754785;80;20934;-53
2022/02/03 15:32:52;;;;;;;11.23;4.43;;;;;;;-0.74;72.16;99372.88;1754905;80;20942;-53
2022/02/03 15:35:27;;;;;;;7.97;4.37;;;;;;;-0.78;71.98;99377.78;1754044;80;22360;-53
2022/02/03 15:37:48;;;;;;;8.63;3.90;;;;;;;-0.84;71.87;99381.77;1755038;80;21108;-52
2022/02/03 15:40:21;;;;;;;6.97;3.53;;;;;;;-0.91;71.77;99375.67;1754452;80;21097;-53
2022/02/03 15:45:19;;;;;;;8.08;2.40;;;;;;;-0.98;71.76;99386.30;1715145;80;21125;-52
2022/02/03 15:48:00;;;;;;;4.30;2.77;;;;;;;-1.02;71.50;99386.75;1753196;80;21852;-53
2022/02/03 16:17:13;;;;;;;5.67;2.55;;;;;;;-1.10;70.21;99445.81;1752447;80;21586;-52
2022/02/03 16:19:56;;;;;;;3.80;1.63;;;;;;;-1.12;70.10;99445.84;1754708;80;21460;-52
2022/02/03 16:22:29;;;;;;;4.93;1.40;;;;;;;-1.16;69.33;99448.06;1748762;80;21069;-52
2022/02/03 16:43:41;;;;;;;3.35;1.25;;;;;;;-1.55;68.01;99486.11;1752184;80;21480;-52
2022/02/03 16:51:34;;;;;;;1.32;0.85;;;;;;;-1.66;66.91;99495.83;1753079;80;21057;-53
2022/02/03 16:53:48;;;;;;;1.23;0.70;;;;;;;-1.69;66.55;99499.78;1747212;80;21085;-53
2022/02/03 16:56:16;;;;;;;1.37;0.67;;;;;;;-1.71;66.22;99509.05;1752557;80;21164;-53
2022/02/03 16:58:45;;;;;;;2.23;0.80;;;;;;;-1.72;66.12;99511.25;1752895;80;21100;-53
2022/02/03 17:01:10;;;;;;;1.43;0.87;;;;;;;-1.74;66.00;99517.41;1756955;80;20891;-53
2022/02/03 17:03:36;;;;;;;2.20;1.00;;;;;;;-1.75;65.81;99516.95;1753298;80;21072;-53
2022/02/03 17:06:05;;;;;;;1.97;0.80;;;;;;;-1.77;65.67;99518.28;1752910;80;21137;-53
2022/02/03 17:08:32;;;;;;;1.87;0.90;;;;;;;-1.78;65.81;99520.47;1725983;80;21092;-53
2022/02/03 17:10:58;;;;;;;2.87;1.30;;;;;;;-1.76;65.93;99531.03;1761359;80;21116;-53
2022/02/03 17:13:24;;;;;;;2.53;0.80;;;;;;;-1.75;65.73;99528.39;1773764;79;21104;-53
2022/02/03 17:15:50;;;;;;;3.47;1.30;;;;;;;-1.74;65.58;99528.84;1770620;80;21061;-53
2022/02/03 17:18:17;;;;;;;1.60;1.00;;;;;;;-1.78;65.18;99537.63;1762444;80;21329;-53
2022/02/03 17:20:43;;;;;;;1.67;0.90;;;;;;;-1.83;64.95;99524.02;1759801;80;21097;-53
2022/02/03 17:23:15;;;;;;;2.50;1.10;;;;;;;-1.91;64.41;99524.92;1758688;80;21040;-53
2022/02/03 17:25:49;;;;;;;3.63;0.80;;;;;;;-1.98;64.73;99527.58;1759227;80;21013;-53
2022/02/03 17:28:20;;;;;;;2.20;1.00;;;;;;;-2.00;64.37;99517.45;1755395;80;21453;-53
2022/02/03 17:30:51;;;;;;;1.90;1.00;;;;;;;-2.01;64.56;99526.25;1760535;80;21075;-53
2022/02/03 17:52:58;;;;;;;1.30;0.80;;;;;;;-2.21;63.96;99524.94;1764008;80;20208;-53
2022/02/03 18:08:31;;;;;;;2.73;1.20;;;;;;;-2.27;64.32;99530.66;1768948;80;21460;-53
2022/02/03 18:50:19;;;;;;;1.90;0.80;;;;;;;-2.36;62.08;99556.59;1754506;80;21125;-51
2022/02/03 18:55:27;;;;;;;1.57;0.80;;;;;;;-2.35;61.90;99560.98;1754471;80;26095;-51
2022/02/03 18:57:57;;;;;;;1.37;0.80;;;;;;;-2.38;61.83;99556.58;1750435;80;21026;-52
2022/02/03 19:12:49;;;;;;;3.95;0.90;;;;;;;-2.36;62.30;99559.23;1760323;80;21089;-52
2022/02/03 19:22:41;;;;;;;1.83;0.70;;;;;;;-2.33;62.20;99554.84;1757325;80;21020;-52
2022/02/03 20:02:37;;;;;;;1.37;0.77;;;;;;;-2.43;60.69;99576.80;1671612;84;21045;-52
2022/02/03 20:04:49;;;;;;;1.83;0.60;;;;;;;-2.44;60.64;99572.84;1755319;80;21049;-53
2022/02/03 20:12:08;;;;;;;2.57;0.70;;;;;;;-2.46;60.03;99576.78;1760088;80;22488;-52
2022/02/03 20:14:34;;;;;;;0.90;0.50;;;;;;;-2.46;60.03;99578.11;1764109;80;20933;-51
2022/02/03 20:17:02;;;;;;;1.23;0.60;;;;;;;-2.45;59.59;99571.96;1764354;79;21049;-52
2022/02/03 20:19:28;;;;;;;1.80;0.53;;;;;;;-2.45;59.66;99561.85;1774164;80;20994;-52
2022/02/03 20:21:54;;;;;;;1.40;0.60;;;;;;;-2.45;59.34;99564.48;1772819;80;23224;-52
2022/02/03 20:24:21;;;;;;;1.30;0.60;;;;;;;-2.49;59.46;99548.25;1761707;80;21359;-52
2022/02/03 20:26:47;;;;;;;1.80;1.00;;;;;;;-2.50;59.48;99551.76;1759638;80;21097;-52
2022/02/03 20:29:14;;;;;;;1.87;1.00;;;;;;;-2.51;59.43;99551.31;1761872;80;21061;-52
2022/02/03 20:31:41;;;;;;;1.33;0.67;;;;;;;-2.53;59.47;99549.99;1771602;80;21100;-54
2022/02/03 20:34:08;;;;;;;2.00;0.60;;;;;;;-2.54;59.66;99550.86;1748092;81;21116;-51
2022/02/03 20:36:36;;;;;;;1.20;0.70;;;;;;;-2.54;59.75;99544.28;1749244;80;20966;-51
2022/02/03 20:39:03;;;;;;;2.07;0.70;;;;;;;-2.53;59.96;99546.04;1748333;81;21367;-51
2022/02/03 20:41:30;;;;;;;1.40;0.60;;;;;;;-2.53;60.10;99546.04;1749804;81;21372;-51
2022/02/03 20:43:57;;;;;;;0.90;0.50;;;;;;;-2.48;60.18;99542.11;1749669;81;21610;-51
2022/02/03 20:46:24;;;;;;;1.80;0.70;;;;;;;-2.45;60.21;99548.23;1747113;81;21194;-51
2022/02/03 20:48:51;;;;;;;1.70;0.90;;;;;;;-2.41;60.39;99550.45;1753269;81;20879;-51
2022/02/03 20:51:20;;;;;;;1.50;0.60;;;;;;;-2.38;60.28;99556.58;1756114;81;20955;-50
2022/02/03 20:53:46;;;;;;;2.40;0.70;;;;;;;-2.38;60.11;99550.43;1749698;81;21412;-51
2022/02/03 20:56:16;;;;;;;1.40;0.60;;;;;;;-2.40;60.20;99545.63;1749750;81;21519;-51
2022/02/03 20:58:41;;;;;;;1.50;0.50;;;;;;;-2.38;60.30;99548.67;1749758;81;21042;-51
2022/02/03 21:01:21;;;;;;;1.60;0.70;;;;;;;-2.39;60.18;99539.04;1751996;81;20963;-50
2022/02/03 21:03:42;;;;;;;1.70;0.80;;;;;;;-2.38;60.23;99543.84;1745793;80;21330;-51
2022/02/03 21:06:09;;;;;;;2.27;0.67;;;;;;;-2.36;60.20;99548.68;1752630;80;21265;-51
2022/02/03 21:08:38;;;;;;;2.27;0.73;;;;;;;-2.37;60.00;99549.55;1754408;81;20954;-51
2022/02/03 21:11:04;;;;;;;0.93;0.60;;;;;;;-2.41;59.55;99546.06;1751879;81;21524;-51
2022/02/03 21:13:31;;;;;;;1.83;0.70;;;;;;;-2.40;59.56;99550.89;1752864;81;21509;-51
2022/02/03 21:16:00;;;;;;;2.43;0.67;;;;;;;-2.41;59.37;99551.33;1750866;81;21417;-51
2022/02/03 21:18:29;;;;;;;2.83;0.70;;;;;;;-2.41;59.38;99546.06;1752985;81;20914;-52
2022/02/03 21:20:55;;;;;;;1.93;0.63;;;;;;;-2.39;59.49;99553.97;1750336;81;20911;-52
2022/02/03 21:23:22;;;;;;;2.60;0.70;;;;;;;-2.37;59.06;99560.09;1750872;81;21096;-52
2022/02/03 21:25:54;;;;;;;3.07;0.70;;;;;;;-2.35;58.95;99557.03;1750381;81;20982;-52
2022/02/03 21:28:25;;;;;;;1.67;0.60;;;;;;;-2.36;58.48;99554.84;1749631;81;20867;-52
2022/02/03 21:30:50;;;;;;;1.57;0.60;;;;;;;-2.38;58.38;99559.66;1751692;81;20952;-52
2022/02/03 21:33:26;;;;;;;2.40;0.60;;;;;;;-2.42;58.19;99558.80;1749101;81;21516;-52
2022/02/03 21:35:48;;;;;;;1.00;0.50;;;;;;;-2.43;58.25;99560.11;1746101;81;21134;-51
2022/02/03 21:38:15;;;;;;;1.20;0.40;;;;;;;-2.42;58.02;99557.48;1749707;81;21022;-51
2022/02/03 21:40:42;;;;;;;0.93;0.43;;;;;;;-2.43;57.68;99563.62;1749545;81;21507;-51
2022/02/03 21:43:10;;;;;;;0.87;0.50;;;;;;;-2.43;57.14;99558.79;1748589;81;21097;-52
2022/02/03 21:45:37;;;;;;;0.80;0.40;;;;;;;-2.43;57.19;99566.26;1747833;81;21053;-51
2022/02/03 21:48:03;;;;;;;1.47;0.50;;;;;;;-2.44;56.95;99560.55;1752128;81;21162;-52
2022/02/03 21:50:34;;;;;;;1.80;0.80;;;;;;;-2.42;56.66;99567.14;1749348;81;21089;-51
2022/02/03 21:53:01;;;;;;;0.83;0.50;;;;;;;-2.45;56.74;99570.64;1746242;81;21084;-51
2022/02/03 21:55:30;;;;;;;1.93;0.60;;;;;;;-2.46;56.76;99571.52;1748606;81;21551;-52
2022/02/03 21:57:56;;;;;;;0.90;0.50;;;;;;;-2.46;56.93;99568.88;1748105;81;21217;-51
2022/02/03 22:00:23;;;;;;;1.23;0.60;;;;;;;-2.45;57.00;99571.08;1753868;81;21139;-52
2022/02/03 22:02:49;;;;;;;2.13;0.70;;;;;;;-2.47;57.32;99571.55;1750998;81;21041;-52
2022/02/03 22:05:15;;;;;;;1.20;0.60;;;;;;;-2.48;57.48;99577.25;1747985;81;21445;-52
2022/02/03 22:07:43;;;;;;;3.13;0.60;;;;;;;-2.50;57.84;99575.05;1745889;81;21121;-51
2022/02/03 22:10:13;;;;;;;2.30;0.70;;;;;;;-2.49;58.13;99581.20;1748042;80;21042;-52
2022/02/03 22:12:39;;;;;;;1.80;0.60;;;;;;;-2.47;58.36;99579.45;1750132;81;21420;-51
2022/02/03 22:15:06;;;;;;;2.33;0.70;;;;;;;-2.41;58.49;99582.08;1747487;81;21073;-52
2022/02/03 22:17:32;;;;;;;1.90;0.60;;;;;;;-2.41;58.54;99585.59;1746093;81;21081;-51